sensor_id;sensor_type;location;lat;lon;timestamp;temperature;humidity
29721;DHT22;23665;51.044;3.748;2023-02-10T00:00:51;7.00;99.90
29721;DHT22;23665;51.044;3.748;2023-02-10T00:03:17;6.90;99.90
29721;DHT22;23665;51.044;3.748;2023-02-10T00:05:42;6.90;99.90
29721;DHT22;23665;51.044;3.748;2023-02-10T00:08:08;7.10;99.90
29721;DHT22;23665;51.044;3.748;2023-02-10T00:10:34;6.90;99.90
29721;DHT22;23665;51.044;3.748;2023-02-10T00:12:59;7.10;99.90
29721;DHT22;23665;51.044;3.748;2023-02-10T00:15:25;7.00;99.90
29721;DHT22;23665;51.044;3.748;2023-02-10T00:17:51;6.90;99.90
29721;DHT22;23665;51.044;3.748;2023-02-10T00:20:16;6.80;99.90
29721;DHT22;23665;51.044;3.748;2023-02-10T00:22:42;6.60;99.90
29721;DHT22;23665;51.044;3.748;2023-02-10T00:25:08;6.70;99.90
29721;DHT22;23665;51.044;3.748;2023-02-10T00:27:33;6.60;99.90
29721;DHT22;23665;51.044;3.748;2023-02-10T00:29:59;6.60;99.90
29721;DHT22;23665;51.044;3.748;2023-02-10T00:32:25;6.60;99.90
29721;DHT22;23665;51.044;3.748;2023-02-10T00:34:51;6.60;99.90
29721;DHT22;23665;51.044;3.748;2023-02-10T00:37:16;6.50;99.90
29721;DHT22;23665;51.044;3.748;2023-02-10T00:39:42;6.30;99.90
29721;DHT22;23665;51.044;3.748;2023-02-10T00:42:07;6.30;99.90
29721;DHT22;23665;51.044;3.748;2023-02-10T00:44:33;6.30;99.90
29721;DHT22;23665;51.044;3.748;2023-02-10T00:46:59;6.20;99.90
29721;DHT22;23665;51.044;3.748;2023-02-10T00:49:24;6.20;99.90
29721;DHT22;23665;51.044;3.748;2023-02-10T00:51:50;6.10;99.90
29721;DHT22;23665;51.044;3.748;2023-02-10T00:54:16;6.00;99.90
29721;DHT22;23665;51.044;3.748;2023-02-10T00:56:41;6.00;99.90
29721;DHT22;23665;51.044;3.748;2023-02-10T00:59:08;6.10;99.90
29721;DHT22;23665;51.044;3.748;2023-02-10T01:01:34;6.20;99.90
29721;DHT22;23665;51.044;3.748;2023-02-10T01:03:59;6.30;99.90
29721;DHT22;23665;51.044;3.748;2023-02-10T01:06:25;6.40;99.90
29721;DHT22;23665;51.044;3.748;2023-02-10T01:08:51;6.30;99.90
29721;DHT22;23665;51.044;3.748;2023-02-10T01:11:16;6.40;99.90
29721;DHT22;23665;51.044;3.748;2023-02-10T01:13:43;6.40;99.90
29721;DHT22;23665;51.044;3.748;2023-02-10T01:16:14;6.50;99.90
29721;DHT22;23665;51.044;3.748;2023-02-10T01:18:42;6.50;99.90
29721;DHT22;23665;51.044;3.748;2023-02-10T01:21:10;6.40;99.90
29721;DHT22;23665;51.044;3.748;2023-02-10T01:23:36;6.40;99.90
29721;DHT22;23665;51.044;3.748;2023-02-10T01:26:01;6.50;99.90
29721;DHT22;23665;51.044;3.748;2023-02-10T01:28:27;6.60;99.90
29721;DHT22;23665;51.044;3.748;2023-02-10T01:30:53;6.70;99.90
29721;DHT22;23665;51.044;3.748;2023-02-10T01:33:19;6.80;99.90
29721;DHT22;23665;51.044;3.748;2023-02-10T01:35:44;6.80;99.90
29721;DHT22;23665;51.044;3.748;2023-02-10T01:38:10;6.90;99.90
29721;DHT22;23665;51.044;3.748;2023-02-10T01:40:36;6.80;99.90
29721;DHT22;23665;51.044;3.748;2023-02-10T01:43:02;6.70;99.90
29721;DHT22;23665;51.044;3.748;2023-02-10T01:45:33;6.70;99.90
29721;DHT22;23665;51.044;3.748;2023-02-10T01:48:00;6.60;99.90
29721;DHT22;23665;51.044;3.748;2023-02-10T01:50:34;6.30;99.90
29721;DHT22;23665;51.044;3.748;2023-02-10T01:53:03;6.30;99.90
29721;DHT22;23665;51.044;3.748;2023-02-10T01:55:33;6.10;99.90
29721;DHT22;23665;51.044;3.748;2023-02-10T01:58:02;5.90;99.90
29721;DHT22;23665;51.044;3.748;2023-02-10T02:00:28;5.90;99.90
29721;DHT22;23665;51.044;3.748;2023-02-10T02:02:55;5.90;99.90
29721;DHT22;23665;51.044;3.748;2023-02-10T02:08:01;5.70;99.90
29721;DHT22;23665;51.044;3.748;2023-02-10T02:13:28;5.40;99.90
29721;DHT22;23665;51.044;3.748;2023-02-10T02:30:10;4.80;99.90
29721;DHT22;23665;51.044;3.748;2023-02-10T02:32:42;4.70;99.90
29721;DHT22;23665;51.044;3.748;2023-02-10T02:35:19;4.70;99.90
29721;DHT22;23665;51.044;3.748;2023-02-10T02:37:47;4.70;99.90
29721;DHT22;23665;51.044;3.748;2023-02-10T02:40:15;4.80;99.90
29721;DHT22;23665;51.044;3.748;2023-02-10T02:42:41;4.90;99.90
29721;DHT22;23665;51.044;3.748;2023-02-10T02:45:14;4.90;99.90
29721;DHT22;23665;51.044;3.748;2023-02-10T02:50:41;4.70;99.90
29721;DHT22;23665;51.044;3.748;2023-02-10T03:02:14;4.70;99.90
29721;DHT22;23665;51.044;3.748;2023-02-10T03:04:34;4.70;99.90
29721;DHT22;23665;51.044;3.748;2023-02-10T03:07:01;4.60;99.90
29721;DHT22;23665;51.044;3.748;2023-02-10T03:09:28;4.70;99.90
29721;DHT22;23665;51.044;3.748;2023-02-10T03:11:53;4.90;99.90
29721;DHT22;23665;51.044;3.748;2023-02-10T03:14:19;4.90;99.90
29721;DHT22;23665;51.044;3.748;2023-02-10T03:16:45;4.90;99.90
29721;DHT22;23665;51.044;3.748;2023-02-10T03:19:11;5.00;99.90
29721;DHT22;23665;51.044;3.748;2023-02-10T03:21:37;4.80;99.90
29721;DHT22;23665;51.044;3.748;2023-02-10T03:24:02;4.90;99.90
29721;DHT22;23665;51.044;3.748;2023-02-10T03:26:29;5.10;99.90
29721;DHT22;23665;51.044;3.748;2023-02-10T03:28:55;5.20;99.90
29721;DHT22;23665;51.044;3.748;2023-02-10T03:31:21;5.20;99.90
29721;DHT22;23665;51.044;3.748;2023-02-10T03:33:47;5.30;99.90
29721;DHT22;23665;51.044;3.748;2023-02-10T03:36:13;5.20;99.90
29721;DHT22;23665;51.044;3.748;2023-02-10T03:38:39;5.00;99.90
29721;DHT22;23665;51.044;3.748;2023-02-10T03:41:04;5.00;99.90
29721;DHT22;23665;51.044;3.748;2023-02-10T03:43:30;5.00;99.90
29721;DHT22;23665;51.044;3.748;2023-02-10T03:46:00;5.00;99.90
29721;DHT22;23665;51.044;3.748;2023-02-10T03:48:26;5.00;99.90
29721;DHT22;23665;51.044;3.748;2023-02-10T03:51:00;4.90;99.90
29721;DHT22;23665;51.044;3.748;2023-02-10T03:53:27;4.90;99.90
29721;DHT22;23665;51.044;3.748;2023-02-10T03:55:53;4.90;99.90
29721;DHT22;23665;51.044;3.748;2023-02-10T03:58:19;4.90;99.90
29721;DHT22;23665;51.044;3.748;2023-02-10T04:00:45;4.90;99.90
29721;DHT22;23665;51.044;3.748;2023-02-10T04:03:10;5.20;99.90
29721;DHT22;23665;51.044;3.748;2023-02-10T04:05:36;5.40;99.90
29721;DHT22;23665;51.044;3.748;2023-02-10T04:08:02;5.40;99.90
29721;DHT22;23665;51.044;3.748;2023-02-10T04:10:28;5.30;99.90
29721;DHT22;23665;51.044;3.748;2023-02-10T04:12:53;5.40;99.90
29721;DHT22;23665;51.044;3.748;2023-02-10T04:15:19;5.40;99.90
29721;DHT22;23665;51.044;3.748;2023-02-10T04:17:45;5.30;99.90
29721;DHT22;23665;51.044;3.748;2023-02-10T04:20:11;5.30;99.90
29721;DHT22;23665;51.044;3.748;2023-02-10T04:22:37;5.20;99.90
29721;DHT22;23665;51.044;3.748;2023-02-10T04:25:04;5.20;99.90
29721;DHT22;23665;51.044;3.748;2023-02-10T04:27:30;5.20;99.90
29721;DHT22;23665;51.044;3.748;2023-02-10T04:29:55;5.30;99.90
29721;DHT22;23665;51.044;3.748;2023-02-10T04:32:21;5.40;99.90
29721;DHT22;23665;51.044;3.748;2023-02-10T04:34:47;5.30;99.90
29721;DHT22;23665;51.044;3.748;2023-02-10T04:37:13;5.40;99.90
29721;DHT22;23665;51.044;3.748;2023-02-10T04:39:39;5.30;99.90
29721;DHT22;23665;51.044;3.748;2023-02-10T04:42:05;5.30;99.90
29721;DHT22;23665;51.044;3.748;2023-02-10T04:44:30;5.20;99.90
29721;DHT22;23665;51.044;3.748;2023-02-10T04:46:56;5.20;99.90
29721;DHT22;23665;51.044;3.748;2023-02-10T04:49:23;5.40;99.90
29721;DHT22;23665;51.044;3.748;2023-02-10T04:51:48;5.50;99.90
29721;DHT22;23665;51.044;3.748;2023-02-10T04:54:14;5.50;99.90
29721;DHT22;23665;51.044;3.748;2023-02-10T04:56:39;5.50;99.90
29721;DHT22;23665;51.044;3.748;2023-02-10T04:59:05;5.50;99.90
29721;DHT22;23665;51.044;3.748;2023-02-10T05:01:31;5.40;99.90
29721;DHT22;23665;51.044;3.748;2023-02-10T05:03:57;5.50;99.90
29721;DHT22;23665;51.044;3.748;2023-02-10T05:06:22;5.20;99.90
29721;DHT22;23665;51.044;3.748;2023-02-10T05:08:48;5.40;99.90
29721;DHT22;23665;51.044;3.748;2023-02-10T05:11:15;5.40;99.90
29721;DHT22;23665;51.044;3.748;2023-02-10T05:13:41;5.50;99.90
29721;DHT22;23665;51.044;3.748;2023-02-10T05:16:08;5.60;99.90
29721;DHT22;23665;51.044;3.748;2023-02-10T05:18:35;5.50;99.90
29721;DHT22;23665;51.044;3.748;2023-02-10T05:21:01;5.60;99.90
29721;DHT22;23665;51.044;3.748;2023-02-10T05:23:28;5.80;99.90
29721;DHT22;23665;51.044;3.748;2023-02-10T05:25:54;5.80;99.90
29721;DHT22;23665;51.044;3.748;2023-02-10T05:28:20;5.80;99.90
29721;DHT22;23665;51.044;3.748;2023-02-10T05:30:47;5.90;99.90
29721;DHT22;23665;51.044;3.748;2023-02-10T05:33:13;6.10;99.90
29721;DHT22;23665;51.044;3.748;2023-02-10T05:35:39;6.00;99.90
29721;DHT22;23665;51.044;3.748;2023-02-10T05:38:04;5.70;99.90
29721;DHT22;23665;51.044;3.748;2023-02-10T05:40:31;5.90;99.90
29721;DHT22;23665;51.044;3.748;2023-02-10T05:42:56;5.80;99.90
29721;DHT22;23665;51.044;3.748;2023-02-10T05:45:22;5.70;99.90
29721;DHT22;23665;51.044;3.748;2023-02-10T05:47:48;5.60;99.90
29721;DHT22;23665;51.044;3.748;2023-02-10T05:50:14;5.70;99.90
29721;DHT22;23665;51.044;3.748;2023-02-10T05:52:40;5.70;99.90
29721;DHT22;23665;51.044;3.748;2023-02-10T05:55:06;5.50;99.90
29721;DHT22;23665;51.044;3.748;2023-02-10T05:57:32;5.40;99.90
29721;DHT22;23665;51.044;3.748;2023-02-10T05:59:58;5.40;99.90
29721;DHT22;23665;51.044;3.748;2023-02-10T06:02:24;5.40;99.90
29721;DHT22;23665;51.044;3.748;2023-02-10T06:04:50;5.40;99.90
29721;DHT22;23665;51.044;3.748;2023-02-10T06:07:16;5.20;99.90
29721;DHT22;23665;51.044;3.748;2023-02-10T06:09:42;5.00;99.90
29721;DHT22;23665;51.044;3.748;2023-02-10T06:12:08;4.90;99.90
29721;DHT22;23665;51.044;3.748;2023-02-10T06:14:34;4.90;99.90
29721;DHT22;23665;51.044;3.748;2023-02-10T06:17:02;5.10;99.90
29721;DHT22;23665;51.044;3.748;2023-02-10T06:19:28;5.20;99.90
29721;DHT22;23665;51.044;3.748;2023-02-10T06:21:54;5.20;99.90
29721;DHT22;23665;51.044;3.748;2023-02-10T06:24:20;5.10;99.90
29721;DHT22;23665;51.044;3.748;2023-02-10T06:26:45;5.10;99.90
29721;DHT22;23665;51.044;3.748;2023-02-10T06:29:11;4.90;99.90
29721;DHT22;23665;51.044;3.748;2023-02-10T06:31:37;4.90;99.90
29721;DHT22;23665;51.044;3.748;2023-02-10T06:34:02;4.80;99.90
29721;DHT22;23665;51.044;3.748;2023-02-10T06:36:28;4.80;99.90
29721;DHT22;23665;51.044;3.748;2023-02-10T06:38:54;4.90;99.90
29721;DHT22;23665;51.044;3.748;2023-02-10T06:41:19;4.90;99.90
29721;DHT22;23665;51.044;3.748;2023-02-10T06:43:45;4.90;99.90
29721;DHT22;23665;51.044;3.748;2023-02-10T06:46:11;4.90;99.90
29721;DHT22;23665;51.044;3.748;2023-02-10T06:48:38;5.70;99.90
29721;DHT22;23665;51.044;3.748;2023-02-10T06:51:04;7.00;99.90
29721;DHT22;23665;51.044;3.748;2023-02-10T06:53:30;7.70;99.90
29721;DHT22;23665;51.044;3.748;2023-02-10T06:55:56;8.30;99.90
